createdAt,value
2018-07-06T00:00:40.276Z,0.00
2018-07-06T00:01:40.300Z,0.00
2018-07-06T00:02:40.326Z,0.00
2018-07-06T00:03:40.343Z,0.00
2018-07-06T00:04:40.372Z,0.00
2018-07-06T00:05:40.396Z,0.00
2018-07-06T00:06:40.421Z,0.00
2018-07-06T00:07:40.443Z,0.00
2018-07-06T00:08:40.463Z,0.00
2018-07-06T00:09:40.498Z,0.00
2018-07-06T00:10:40.515Z,0.00
2018-07-06T00:11:40.537Z,0.00
2018-07-06T00:12:40.565Z,0.00
2018-07-06T00:13:40.594Z,0.00
2018-07-06T00:14:40.609Z,0.00
2018-07-06T00:15:40.640Z,0.00
2018-07-06T00:16:40.657Z,0.00
2018-07-06T00:17:40.686Z,0.00
2018-07-06T00:18:40.704Z,0.00
2018-07-06T00:19:40.732Z,0.00
2018-07-06T00:20:40.752Z,0.00
2018-07-06T00:21:40.779Z,0.00
2018-07-06T00:22:40.802Z,0.00
2018-07-06T00:23:40.829Z,0.00
2018-07-06T00:24:40.852Z,0.00
2018-07-06T00:25:40.872Z,0.00
2018-07-06T00:26:40.899Z,0.00
2018-07-06T00:27:40.923Z,0.00
2018-07-06T00:28:40.945Z,0.00
2018-07-06T00:29:40.974Z,0.00
2018-07-06T00:30:40.992Z,0.00
2018-07-06T00:31:41.016Z,0.00
2018-07-06T00:32:41.047Z,0.00
2018-07-06T00:33:41.073Z,0.00
2018-07-06T00:34:41.099Z,0.00
2018-07-06T00:35:41.123Z,0.00
2018-07-06T00:36:41.172Z,0.00
2018-07-06T00:37:41.164Z,0.00
2018-07-06T00:38:41.183Z,0.00
2018-07-06T00:39:41.210Z,0.00
2018-07-06T00:40:41.237Z,0.00
2018-07-06T00:41:41.269Z,0.00
2018-07-06T00:42:41.285Z,0.00
2018-07-06T00:43:41.305Z,0.00
2018-07-06T00:44:41.326Z,0.00
2018-07-06T00:45:41.350Z,0.00
2018-07-06T00:46:41.379Z,0.00
2018-07-06T00:47:41.402Z,0.00
2018-07-06T00:48:41.440Z,0.00
2018-07-06T00:49:41.447Z,0.00
2018-07-06T00:50:41.469Z,0.00
2018-07-06T00:51:41.497Z,0.00
2018-07-06T00:52:41.520Z,0.00
2018-07-06T00:53:41.542Z,0.00
2018-07-06T00:54:41.589Z,0.00
2018-07-06T00:55:41.587Z,0.00
2018-07-06T00:56:41.616Z,0.00
2018-07-06T00:57:41.637Z,0.00
2018-07-06T00:58:41.665Z,0.00
2018-07-06T00:59:41.689Z,0.00
2018-07-06T01:00:41.709Z,0.00
2018-07-06T01:01:41.834Z,0.00
2018-07-06T01:02:41.762Z,0.00
2018-07-06T01:03:41.784Z,0.00
2018-07-06T01:04:41.807Z,0.00
2018-07-06T01:05:41.825Z,0.00
2018-07-06T01:06:41.855Z,0.00
2018-07-06T01:07:41.877Z,0.00
2018-07-06T01:08:41.902Z,0.00
2018-07-06T01:09:41.927Z,0.00
2018-07-06T01:10:41.949Z,0.00
2018-07-06T01:11:41.970Z,0.00
2018-07-06T01:12:41.995Z,0.00
2018-07-06T01:13:42.020Z,0.00
2018-07-06T01:14:42.045Z,0.00
2018-07-06T01:15:42.073Z,0.00
2018-07-06T01:16:42.094Z,0.00
2018-07-06T01:17:42.124Z,0.00
2018-07-06T01:18:42.141Z,0.00
2018-07-06T01:19:42.161Z,0.00
2018-07-06T01:20:42.187Z,0.00
2018-07-06T01:21:42.209Z,0.00
2018-07-06T01:22:42.230Z,0.00
2018-07-06T01:23:42.260Z,0.00
2018-07-06T01:24:42.285Z,0.00
2018-07-06T01:25:42.312Z,0.00
2018-07-06T01:26:42.331Z,0.00
2018-07-06T01:27:42.354Z,0.00
2018-07-06T01:28:42.381Z,0.00
2018-07-06T01:29:42.401Z,0.00
2018-07-06T01:30:42.428Z,0.00
2018-07-06T01:31:42.449Z,0.00
2018-07-06T01:32:42.475Z,0.00
2018-07-06T01:33:42.499Z,0.00
2018-07-06T01:34:42.525Z,0.00
2018-07-06T01:35:42.545Z,0.00
2018-07-06T01:36:42.563Z,0.00
2018-07-06T01:37:42.591Z,0.00
2018-07-06T01:38:42.617Z,0.00
2018-07-06T01:39:42.640Z,0.00
2018-07-06T01:40:42.664Z,0.00
2018-07-06T01:41:42.691Z,0.00
2018-07-06T01:42:42.708Z,0.00
2018-07-06T01:43:42.733Z,0.00
2018-07-06T01:44:42.764Z,0.00
2018-07-06T01:45:42.781Z,0.00
2018-07-06T01:46:42.806Z,0.00
2018-07-06T01:47:42.849Z,0.00
2018-07-06T01:48:42.854Z,0.00
2018-07-06T01:49:42.875Z,0.00
2018-07-06T01:50:42.901Z,0.00
2018-07-06T01:51:42.927Z,0.00
2018-07-06T01:52:42.945Z,0.00
2018-07-06T01:53:42.968Z,0.00
2018-07-06T01:54:42.997Z,0.00
2018-07-06T01:55:43.021Z,0.00
2018-07-06T01:56:43.044Z,0.00
2018-07-06T01:57:43.074Z,0.00
2018-07-06T01:58:43.092Z,0.00
2018-07-06T01:59:43.116Z,0.00
2018-07-06T02:00:43.141Z,0.00
2018-07-06T02:01:43.161Z,0.00
2018-07-06T02:02:43.188Z,0.00
2018-07-06T02:03:43.211Z,0.00
2018-07-06T02:04:43.231Z,0.00
2018-07-06T02:05:43.256Z,0.00
2018-07-06T02:06:43.284Z,0.00
2018-07-06T02:07:43.303Z,0.00
2018-07-06T02:08:43.329Z,0.00
2018-07-06T02:09:43.349Z,0.00
2018-07-06T02:10:43.385Z,0.00
2018-07-06T02:11:43.403Z,0.00
2018-07-06T02:12:43.425Z,0.00
2018-07-06T02:13:43.451Z,0.00
2018-07-06T02:14:43.469Z,0.00
2018-07-06T02:15:43.499Z,0.00
2018-07-06T02:16:43.525Z,0.00
2018-07-06T02:17:43.546Z,0.00
2018-07-06T02:18:43.565Z,0.00
2018-07-06T02:19:43.593Z,0.00
2018-07-06T02:20:43.611Z,0.00
2018-07-06T02:21:43.635Z,0.00
2018-07-06T02:22:43.657Z,0.00
2018-07-06T02:23:43.683Z,0.00
2018-07-06T02:24:43.711Z,0.00
2018-07-06T02:25:43.733Z,0.00
2018-07-06T02:26:43.759Z,0.00
2018-07-06T02:27:43.784Z,0.00
2018-07-06T02:28:43.801Z,0.00
2018-07-06T02:29:43.833Z,0.00
2018-07-06T02:30:43.850Z,0.00
2018-07-06T02:31:43.873Z,0.00
2018-07-06T02:33:43.921Z,0.00
2018-07-06T02:34:43.947Z,0.00
2018-07-06T02:35:43.966Z,0.00
2018-07-06T02:36:43.991Z,0.00
2018-07-06T02:37:44.019Z,0.00
2018-07-06T02:38:44.041Z,0.00
2018-07-06T02:39:45.493Z,0.00
2018-07-06T02:40:44.101Z,0.00
2018-07-06T02:41:44.123Z,0.00
2018-07-06T02:42:44.866Z,0.00
2018-07-06T02:43:44.187Z,0.00
2018-07-06T02:44:44.193Z,0.00
2018-07-06T02:45:44.213Z,0.00
2018-07-06T02:46:44.236Z,0.00
2018-07-06T02:47:44.267Z,0.00
2018-07-06T02:48:44.309Z,0.00
2018-07-06T02:50:44.331Z,0.00
2018-07-06T02:51:44.379Z,0.00
2018-07-06T02:52:44.403Z,0.00
2018-07-06T02:53:44.424Z,0.00
2018-07-06T02:54:44.447Z,0.00
2018-07-06T02:55:44.489Z,0.00
2018-07-06T02:56:44.708Z,0.00
2018-07-06T02:57:44.509Z,0.00
2018-07-06T02:58:44.531Z,0.00
2018-07-06T02:59:44.572Z,0.00
2018-07-06T03:00:44.583Z,0.00
2018-07-06T03:01:44.625Z,0.00
2018-07-06T03:02:44.641Z,0.00
2018-07-06T03:03:44.675Z,0.00
2018-07-06T03:04:44.710Z,0.00
2018-07-06T03:05:44.719Z,0.00
2018-07-06T03:06:44.742Z,0.00
2018-07-06T03:07:45.079Z,0.00
2018-07-06T03:08:44.793Z,5.63
2018-07-06T03:10:44.845Z,5.63
2018-07-06T03:11:44.870Z,5.63
2018-07-06T03:12:44.891Z,5.63
2018-07-06T03:13:44.922Z,5.63
2018-07-06T03:14:45.131Z,5.63
2018-07-06T03:15:45.375Z,5.63
2018-07-06T03:17:45.020Z,5.63
2018-07-06T03:19:45.071Z,5.63
2018-07-06T03:20:45.089Z,5.63
2018-07-06T03:21:45.320Z,5.63
2018-07-06T03:24:45.187Z,11.25
2018-07-06T03:25:45.722Z,11.25
2018-07-06T03:27:45.255Z,11.25
2018-07-06T03:28:45.467Z,11.25
2018-07-06T03:29:45.296Z,11.25
2018-07-06T03:30:45.323Z,11.25
2018-07-06T03:31:45.347Z,11.25
2018-07-06T03:32:45.369Z,16.88
2018-07-06T03:33:45.394Z,16.88
2018-07-06T03:34:45.424Z,16.88
2018-07-06T03:35:45.439Z,22.50
2018-07-06T03:36:45.471Z,22.50
2018-07-06T03:37:45.498Z,22.50
2018-07-06T03:38:45.524Z,28.13
2018-07-06T03:39:45.545Z,28.13
2018-07-06T03:40:45.563Z,28.13
2018-07-06T03:41:45.589Z,28.13
2018-07-06T03:42:45.614Z,28.13
2018-07-06T03:43:45.645Z,28.13
2018-07-06T03:44:45.667Z,22.50
2018-07-06T03:45:45.694Z,22.50
2018-07-06T03:46:45.715Z,28.13
2018-07-06T03:47:45.747Z,28.13
2018-07-06T03:48:45.767Z,28.13
2018-07-06T03:49:45.791Z,28.13
2018-07-06T03:50:45.821Z,28.13
2018-07-06T03:51:45.835Z,28.13
2018-07-06T03:52:45.864Z,22.50
2018-07-06T03:53:45.888Z,22.50
2018-07-06T03:54:45.910Z,22.50
2018-07-06T03:55:45.935Z,16.88
2018-07-06T03:56:45.964Z,22.50
2018-07-06T03:57:45.986Z,22.50
2018-07-06T03:58:46.011Z,28.13
2018-07-06T03:59:46.034Z,28.13
2018-07-06T04:00:46.058Z,28.13
2018-07-06T04:01:46.084Z,33.75
2018-07-06T04:02:46.107Z,39.38
2018-07-06T04:03:46.138Z,33.75
2018-07-06T04:04:46.160Z,39.38
2018-07-06T04:05:46.182Z,39.38
2018-07-06T04:06:46.203Z,33.75
2018-07-06T04:07:46.226Z,33.75
2018-07-06T04:08:46.257Z,33.75
2018-07-06T04:09:46.279Z,39.38
2018-07-06T04:10:46.306Z,39.38
2018-07-06T04:11:46.334Z,33.75
2018-07-06T04:12:46.353Z,28.13
2018-07-06T04:13:46.377Z,28.13
2018-07-06T04:14:46.397Z,28.13
2018-07-06T04:15:46.436Z,28.13
2018-07-06T04:16:46.451Z,28.13
2018-07-06T04:17:46.478Z,22.50
2018-07-06T04:18:46.506Z,22.50
2018-07-06T04:19:46.533Z,22.50
2018-07-06T04:20:46.547Z,28.13
2018-07-06T04:21:46.571Z,28.13
2018-07-06T04:22:46.600Z,22.50
2018-07-06T04:23:46.623Z,22.50
2018-07-06T04:24:46.652Z,22.50
2018-07-06T04:25:46.672Z,22.50
2018-07-06T04:26:46.699Z,28.13
2018-07-06T04:27:46.719Z,28.13
2018-07-06T04:28:46.753Z,39.38
2018-07-06T04:29:46.774Z,50.63
2018-07-06T04:30:46.793Z,50.63
2018-07-06T04:31:46.827Z,50.63
2018-07-06T04:32:46.843Z,50.63
2018-07-06T04:33:46.873Z,50.63
2018-07-06T04:34:46.894Z,50.63
2018-07-06T04:35:46.922Z,56.25
2018-07-06T04:36:46.944Z,56.25
2018-07-06T04:37:46.968Z,61.88
2018-07-06T04:38:46.994Z,56.25
2018-07-06T04:39:47.021Z,50.63
2018-07-06T04:40:47.043Z,50.63
2018-07-06T04:41:47.061Z,56.25
2018-07-06T04:42:47.089Z,67.50
2018-07-06T04:43:47.120Z,61.88
2018-07-06T04:44:47.138Z,56.25
2018-07-06T04:45:47.167Z,61.88
2018-07-06T04:46:47.189Z,61.88
2018-07-06T04:47:47.210Z,61.88
2018-07-06T04:48:47.244Z,61.88
2018-07-06T04:49:47.262Z,61.88
2018-07-06T04:50:47.286Z,67.50
2018-07-06T04:51:47.314Z,67.50
2018-07-06T04:52:47.337Z,61.88
2018-07-06T04:53:47.358Z,56.25
2018-07-06T04:54:47.382Z,56.25
2018-07-06T04:55:47.416Z,61.88
2018-07-06T04:56:47.432Z,73.13
2018-07-06T04:57:47.456Z,67.50
2018-07-06T04:58:47.490Z,67.50
2018-07-06T04:59:47.537Z,67.50
2018-07-06T05:00:47.533Z,67.50
2018-07-06T05:01:47.558Z,67.50
2018-07-06T05:02:47.583Z,67.50
2018-07-06T05:03:47.605Z,67.50
2018-07-06T05:04:47.626Z,67.50
2018-07-06T05:05:47.657Z,67.50
2018-07-06T05:06:47.683Z,67.50
2018-07-06T05:07:47.735Z,67.50
2018-07-06T05:08:47.729Z,67.50
2018-07-06T05:09:47.752Z,73.13
2018-07-06T05:10:47.775Z,78.75
2018-07-06T05:11:47.802Z,84.38
2018-07-06T05:12:47.825Z,84.38
2018-07-06T05:13:47.850Z,90.00
2018-07-06T05:14:47.876Z,90.00
2018-07-06T05:15:47.900Z,90.00
2018-07-06T05:16:48.060Z,84.38
2018-07-06T05:17:47.950Z,84.38
2018-07-06T05:18:47.980Z,90.00
2018-07-06T05:19:47.998Z,101.25
2018-07-06T05:20:48.028Z,95.63
2018-07-06T05:21:48.049Z,90.00
2018-07-06T05:22:48.071Z,84.38
2018-07-06T05:23:48.100Z,90.00
2018-07-06T05:24:48.124Z,95.63
2018-07-06T05:25:48.145Z,101.25
2018-07-06T05:26:48.170Z,101.25
2018-07-06T05:27:48.195Z,106.88
2018-07-06T05:28:48.221Z,101.25
2018-07-06T05:29:48.248Z,106.88
2018-07-06T05:30:48.268Z,101.25
2018-07-06T05:31:48.294Z,101.25
2018-07-06T05:32:48.321Z,101.25
2018-07-06T05:33:48.347Z,112.50
2018-07-06T05:34:48.372Z,112.50
2018-07-06T05:35:48.398Z,106.88
2018-07-06T05:36:48.418Z,112.50
2018-07-06T05:37:48.481Z,118.13
2018-07-06T05:38:48.467Z,123.75
2018-07-06T05:39:48.489Z,106.88
2018-07-06T05:40:48.521Z,112.50
2018-07-06T05:41:48.541Z,118.13
2018-07-06T05:42:48.569Z,135.00
2018-07-06T05:43:48.600Z,129.38
2018-07-06T05:44:48.617Z,123.75
2018-07-06T05:45:48.639Z,118.13
2018-07-06T05:46:48.670Z,118.13
2018-07-06T05:47:48.704Z,123.75
2018-07-06T05:48:48.714Z,118.13
2018-07-06T05:49:48.742Z,123.75
2018-07-06T05:50:48.765Z,118.13
2018-07-06T05:51:48.789Z,123.75
2018-07-06T05:52:48.818Z,123.75
2018-07-06T05:53:48.936Z,123.75
2018-07-06T05:54:48.867Z,129.38
2018-07-06T05:55:48.893Z,123.75
2018-07-06T05:56:48.913Z,123.75
2018-07-06T05:57:48.939Z,118.13
2018-07-06T05:58:48.971Z,112.50
2018-07-06T05:59:48.988Z,118.13
2018-07-06T06:00:49.021Z,129.38
2018-07-06T06:01:49.041Z,129.38
2018-07-06T06:02:49.065Z,123.75
2018-07-06T06:03:49.088Z,123.75
2018-07-06T06:04:49.114Z,135.00
2018-07-06T06:05:49.133Z,135.00
2018-07-06T06:06:49.159Z,135.00
2018-07-06T06:07:49.197Z,129.38
2018-07-06T06:08:49.212Z,123.75
2018-07-06T06:09:49.242Z,129.38
2018-07-06T06:10:49.265Z,135.00
2018-07-06T06:11:49.288Z,129.38
2018-07-06T06:12:49.310Z,140.63
2018-07-06T06:13:49.341Z,146.25
2018-07-06T06:14:49.419Z,157.50
2018-07-06T06:15:49.383Z,168.75
2018-07-06T06:16:49.410Z,185.63
2018-07-06T06:17:49.438Z,185.63
2018-07-06T06:18:49.548Z,191.25
2018-07-06T06:19:49.486Z,185.63
2018-07-06T06:20:49.511Z,202.50
2018-07-06T06:21:49.541Z,196.88
2018-07-06T06:22:49.565Z,208.13
2018-07-06T06:23:49.585Z,196.88
2018-07-06T06:24:49.664Z,202.50
2018-07-06T06:25:49.639Z,213.75
2018-07-06T06:26:49.669Z,241.88
2018-07-06T06:27:49.689Z,213.75
2018-07-06T06:28:49.714Z,174.38
2018-07-06T06:29:49.744Z,157.50
2018-07-06T06:30:49.764Z,168.75
2018-07-06T06:31:49.789Z,140.63
2018-07-06T06:32:49.858Z,140.63
2018-07-06T06:33:50.030Z,135.00
2018-07-06T06:34:49.866Z,140.63
2018-07-06T06:35:49.889Z,174.38
2018-07-06T06:36:49.915Z,202.50
2018-07-06T06:37:49.941Z,213.75
2018-07-06T06:38:49.962Z,196.88
2018-07-06T06:39:49.994Z,185.63
2018-07-06T06:40:50.019Z,174.38
2018-07-06T06:41:50.037Z,168.75
2018-07-06T06:42:50.065Z,157.50
2018-07-06T06:43:50.089Z,157.50
2018-07-06T06:44:50.148Z,146.25
2018-07-06T06:45:50.137Z,129.38
2018-07-06T06:46:50.168Z,123.75
2018-07-06T06:47:50.195Z,118.13
2018-07-06T06:48:50.218Z,118.13
2018-07-06T06:49:50.245Z,118.13
2018-07-06T06:50:50.267Z,123.75
2018-07-06T06:51:50.289Z,123.75
2018-07-06T06:52:50.319Z,118.13
2018-07-06T06:53:50.345Z,123.75
2018-07-06T06:54:50.366Z,129.38
2018-07-06T06:55:50.392Z,135.00
2018-07-06T06:56:50.414Z,174.38
2018-07-06T06:57:50.443Z,174.38
2018-07-06T06:58:50.461Z,174.38
2018-07-06T06:59:50.487Z,180.00
2018-07-06T07:00:50.523Z,191.25
2018-07-06T07:01:50.542Z,230.63
2018-07-06T07:02:50.565Z,275.63
2018-07-06T07:03:50.589Z,309.38
2018-07-06T07:04:50.618Z,320.63
2018-07-06T07:05:50.639Z,281.25
2018-07-06T07:06:50.669Z,236.25
2018-07-06T07:07:50.717Z,196.88
2018-07-06T07:08:50.712Z,163.13
2018-07-06T07:09:50.735Z,168.75
2018-07-06T07:10:50.766Z,174.38
2018-07-06T07:11:50.795Z,180.00
2018-07-06T07:12:50.811Z,146.25
2018-07-06T07:13:50.952Z,146.25
2018-07-06T07:14:50.865Z,135.00
2018-07-06T07:15:50.886Z,140.63
2018-07-06T07:16:50.907Z,123.75
2018-07-06T07:17:50.938Z,135.00
2018-07-06T07:18:50.969Z,140.63
2018-07-06T07:19:50.986Z,157.50
2018-07-06T07:20:51.014Z,168.75
2018-07-06T07:21:51.042Z,174.38
2018-07-06T07:22:51.063Z,202.50
2018-07-06T07:23:51.088Z,225.00
2018-07-06T07:24:51.120Z,241.88
2018-07-06T07:25:51.137Z,236.25
2018-07-06T07:26:51.163Z,247.50
2018-07-06T07:27:51.192Z,253.13
2018-07-06T07:28:51.207Z,264.38
2018-07-06T07:29:51.240Z,241.88
2018-07-06T07:30:51.262Z,241.88
2018-07-06T07:31:51.296Z,219.38
2018-07-06T07:32:51.307Z,236.25
2018-07-06T07:33:51.341Z,253.13
2018-07-06T07:34:51.359Z,230.63
2018-07-06T07:35:51.387Z,219.38
2018-07-06T07:36:51.411Z,208.13
2018-07-06T07:37:51.431Z,219.38
2018-07-06T07:38:51.524Z,225.00
2018-07-06T07:39:51.490Z,225.00
2018-07-06T07:40:51.514Z,219.38
2018-07-06T07:41:51.537Z,219.38
2018-07-06T07:42:51.557Z,213.75
2018-07-06T07:43:51.583Z,230.63
2018-07-06T07:44:51.611Z,225.00
2018-07-06T07:45:51.643Z,230.63
2018-07-06T07:46:51.667Z,247.50
2018-07-06T07:47:51.691Z,241.88
2018-07-06T07:48:51.708Z,247.50
2018-07-06T07:49:51.738Z,247.50
2018-07-06T07:50:51.763Z,309.38
2018-07-06T07:51:51.791Z,371.25
2018-07-06T07:52:51.805Z,405.00
2018-07-06T07:53:51.837Z,393.75
2018-07-06T07:54:51.864Z,365.63
2018-07-06T07:55:51.890Z,343.13
2018-07-06T07:56:51.915Z,399.38
2018-07-06T07:57:51.939Z,388.13
2018-07-06T07:58:51.969Z,399.38
2018-07-06T07:59:51.993Z,371.25
2018-07-06T08:00:52.109Z,444.38
2018-07-06T08:01:52.041Z,478.13
2018-07-06T08:02:52.061Z,511.88
2018-07-06T08:03:52.088Z,545.63
2018-07-06T08:04:52.115Z,551.25
2018-07-06T08:05:52.135Z,686.25
2018-07-06T08:06:52.169Z,691.88
2018-07-06T08:07:52.191Z,635.63
2018-07-06T08:08:52.215Z,736.88
2018-07-06T08:09:52.246Z,759.38
2018-07-06T08:10:52.264Z,686.25
2018-07-06T08:11:52.355Z,624.38
2018-07-06T08:12:52.322Z,556.88
2018-07-06T08:13:52.340Z,545.63
2018-07-06T08:14:52.366Z,556.88
2018-07-06T08:15:52.401Z,641.25
2018-07-06T08:16:53.836Z,697.50
2018-07-06T08:17:52.445Z,748.13
2018-07-06T08:19:41.043Z,798.75
2018-07-06T08:20:40.055Z,753.75
2018-07-06T08:21:40.083Z,826.88
2018-07-06T08:22:40.113Z,810.00
2018-07-06T08:23:40.136Z,742.50
2018-07-06T08:24:40.162Z,703.13
2018-07-06T08:25:40.310Z,663.75
2018-07-06T08:26:40.228Z,551.25
2018-07-06T08:27:40.240Z,461.25
2018-07-06T08:28:40.280Z,472.50
2018-07-06T08:29:40.495Z,551.25
2018-07-06T08:30:40.520Z,573.75
2018-07-06T08:31:40.486Z,691.88
2018-07-06T08:32:40.389Z,804.38
2018-07-06T08:33:40.621Z,753.75
2018-07-06T08:34:40.418Z,680.63
2018-07-06T08:35:40.449Z,691.88
2018-07-06T08:36:40.488Z,703.13
2018-07-06T08:37:40.527Z,652.50
2018-07-06T08:38:40.546Z,506.25
2018-07-06T08:39:40.693Z,495.00
2018-07-06T08:40:40.578Z,511.88
2018-07-06T08:41:40.619Z,618.75
2018-07-06T08:42:40.635Z,703.13
2018-07-06T08:43:40.709Z,669.38
2018-07-06T08:44:40.704Z,607.50
2018-07-06T08:45:40.709Z,540.00
2018-07-06T08:46:40.738Z,478.13
2018-07-06T08:47:40.788Z,376.88
2018-07-06T08:48:40.789Z,399.38
2018-07-06T08:49:40.821Z,365.63
2018-07-06T08:50:40.863Z,388.13
2018-07-06T08:51:40.869Z,360.00
2018-07-06T08:52:40.894Z,343.13
2018-07-06T08:53:41.119Z,343.13
2018-07-06T08:54:40.962Z,331.88
2018-07-06T08:55:41.006Z,337.50
2018-07-06T08:56:41.018Z,348.75
2018-07-06T08:57:41.023Z,354.38
2018-07-06T08:58:41.114Z,365.63
2018-07-06T08:59:41.296Z,376.88
2018-07-06T09:00:41.110Z,371.25
2018-07-06T09:02:41.174Z,371.25
2018-07-06T09:03:41.191Z,354.38
2018-07-06T09:04:41.281Z,354.38
2018-07-06T09:05:41.251Z,354.38
2018-07-06T09:07:41.353Z,371.25
2018-07-06T09:08:41.307Z,405.00
2018-07-06T09:09:41.539Z,382.50
2018-07-06T09:10:41.388Z,343.13
2018-07-06T09:11:41.407Z,326.25
2018-07-06T09:12:41.416Z,320.63
2018-07-06T09:13:41.438Z,337.50
2018-07-06T09:14:41.468Z,331.88
2018-07-06T09:15:41.499Z,326.25
2018-07-06T09:16:41.530Z,309.38
2018-07-06T09:17:41.566Z,315.00
2018-07-06T09:18:41.888Z,315.00
2018-07-06T09:19:41.783Z,309.38
2018-07-06T09:20:41.633Z,303.75
2018-07-06T09:21:41.643Z,309.38
2018-07-06T09:22:41.996Z,309.38
2018-07-06T09:23:41.719Z,309.38
2018-07-06T09:24:41.756Z,309.38
2018-07-06T09:25:41.871Z,309.38
2018-07-06T09:26:41.775Z,309.38
2018-07-06T09:27:41.804Z,315.00
2018-07-06T09:28:41.822Z,309.38
2018-07-06T09:29:41.860Z,309.38
2018-07-06T09:30:41.876Z,309.38
2018-07-06T09:31:41.926Z,303.75
2018-07-06T09:32:41.928Z,303.75
2018-07-06T09:33:41.958Z,309.38
2018-07-06T09:34:41.982Z,303.75
2018-07-06T09:35:42.030Z,303.75
2018-07-06T09:36:42.034Z,303.75
2018-07-06T09:37:42.077Z,309.38
2018-07-06T09:38:42.103Z,315.00
2018-07-06T09:39:42.129Z,326.25
2018-07-06T09:40:42.356Z,326.25
2018-07-06T09:41:42.163Z,315.00
2018-07-06T09:42:42.182Z,309.38
2018-07-06T09:43:42.212Z,315.00
2018-07-06T09:44:42.554Z,303.75
2018-07-06T09:45:42.464Z,309.38
2018-07-06T09:46:42.319Z,309.38
2018-07-06T09:47:42.316Z,315.00
2018-07-06T09:48:42.361Z,320.63
2018-07-06T09:49:42.382Z,320.63
2018-07-06T09:50:42.413Z,315.00
2018-07-06T09:51:42.414Z,309.38
2018-07-06T09:52:42.465Z,309.38
2018-07-06T09:53:42.787Z,315.00
2018-07-06T09:55:42.518Z,315.00
2018-07-06T09:56:42.561Z,320.63
2018-07-06T09:57:42.570Z,326.25
2018-07-06T09:58:43.018Z,337.50
2018-07-06T09:59:42.621Z,354.38
2018-07-06T10:00:42.716Z,371.25
2018-07-06T10:02:43.229Z,326.25
2018-07-06T10:03:42.738Z,331.88
2018-07-06T10:04:42.948Z,331.88
2018-07-06T10:05:42.851Z,331.88
2018-07-06T10:06:43.322Z,331.88
2018-07-06T10:07:42.839Z,331.88
2018-07-06T10:08:42.865Z,331.88
2018-07-06T10:09:42.905Z,331.88
2018-07-06T10:10:42.900Z,337.50
2018-07-06T10:11:42.927Z,337.50
2018-07-06T10:13:42.978Z,337.50
2018-07-06T10:14:43.016Z,337.50
2018-07-06T10:15:43.240Z,343.13
2018-07-06T10:16:43.058Z,343.13
2018-07-06T10:17:43.308Z,343.13
2018-07-06T10:18:43.126Z,343.13
2018-07-06T10:19:43.157Z,337.50
2018-07-06T10:20:43.489Z,337.50
2018-07-06T10:21:43.384Z,337.50
2018-07-06T10:23:43.239Z,337.50
2018-07-06T10:24:43.277Z,337.50
2018-07-06T10:25:43.618Z,343.13
2018-07-06T10:26:43.534Z,343.13
2018-07-06T10:27:43.352Z,343.13
2018-07-06T10:28:43.384Z,343.13
2018-07-06T10:29:43.407Z,348.75
2018-07-06T10:30:43.735Z,354.38
2018-07-06T10:31:43.459Z,354.38
2018-07-06T10:32:43.472Z,354.38
2018-07-06T10:33:44.087Z,354.38
2018-07-06T10:34:43.552Z,360.00
2018-07-06T10:35:43.560Z,354.38
2018-07-06T10:36:43.584Z,354.38
2018-07-06T10:38:43.619Z,360.00
2018-07-06T10:39:43.694Z,354.38
2018-07-06T10:40:43.693Z,360.00
2018-07-06T10:41:43.696Z,365.63
2018-07-06T10:42:43.748Z,376.88
2018-07-06T10:43:43.766Z,382.50
2018-07-06T10:44:43.997Z,382.50
2018-07-06T10:45:43.802Z,393.75
2018-07-06T10:46:44.094Z,382.50
2018-07-06T10:47:43.849Z,393.75
2018-07-06T10:48:44.098Z,393.75
2018-07-06T10:49:43.919Z,405.00
2018-07-06T10:50:44.330Z,410.63
2018-07-06T10:51:43.956Z,416.25
2018-07-06T10:52:44.192Z,421.88
2018-07-06T10:53:44.029Z,433.13
2018-07-06T10:54:44.049Z,438.75
2018-07-06T10:55:44.087Z,444.38
2018-07-06T10:56:44.109Z,472.50
2018-07-06T10:57:44.122Z,478.13
2018-07-06T10:58:44.153Z,517.50
2018-07-06T10:59:44.183Z,562.50
2018-07-06T11:00:44.519Z,613.13
2018-07-06T11:01:44.225Z,658.13
2018-07-06T11:02:44.240Z,753.75
2018-07-06T11:03:44.286Z,810.00
2018-07-06T11:04:44.516Z,826.88
2018-07-06T11:05:44.320Z,922.50
2018-07-06T11:06:44.674Z,1074.38
2018-07-06T11:07:44.376Z,1316.25
2018-07-06T11:08:44.410Z,1856.25
2018-07-06T11:09:44.429Z,2581.88
2018-07-06T11:10:44.452Z,2846.25
2018-07-06T11:18:45.509Z,3071.25
2018-07-06T11:19:45.129Z,3110.63
2018-07-06T11:23:44.828Z,3048.75
2018-07-06T11:24:44.855Z,3015.00
2018-07-06T11:25:44.886Z,3037.50
2018-07-06T11:26:44.919Z,3121.88
2018-07-06T11:27:44.948Z,3228.75
2018-07-06T11:28:44.980Z,3273.75
2018-07-06T11:29:45.024Z,3296.25
2018-07-06T11:30:45.038Z,3341.25
2018-07-06T11:31:45.082Z,3273.75
2018-07-06T11:32:45.115Z,3363.75
2018-07-06T11:33:45.140Z,3448.13
2018-07-06T11:34:45.178Z,3414.38
2018-07-06T11:35:45.206Z,3420.00
2018-07-06T11:36:45.240Z,3566.25
2018-07-06T11:37:45.277Z,3566.25
2018-07-06T11:38:45.311Z,3549.38
2018-07-06T11:39:45.340Z,3515.63
2018-07-06T11:40:45.379Z,3481.88
2018-07-06T11:41:45.406Z,3504.38
2018-07-06T11:42:45.438Z,3560.63
2018-07-06T11:43:45.470Z,3588.75
2018-07-06T11:44:45.561Z,3712.50
2018-07-06T11:45:45.546Z,3847.50
2018-07-06T11:46:45.577Z,3785.63
2018-07-06T11:47:45.611Z,3780.00
2018-07-06T11:48:45.647Z,3875.63
2018-07-06T11:49:45.684Z,3841.88
2018-07-06T11:50:45.712Z,3808.13
2018-07-06T11:51:45.756Z,3892.50
2018-07-06T11:52:45.795Z,3943.13
2018-07-06T11:53:45.828Z,3937.50
2018-07-06T11:54:45.852Z,3926.25
2018-07-06T11:55:45.893Z,4044.38
2018-07-06T11:56:47.532Z,4027.50
2018-07-06T11:57:45.957Z,4072.50
2018-07-06T11:58:45.994Z,4083.75
2018-07-06T11:59:46.033Z,4010.63
2018-07-06T12:00:46.068Z,4038.75
2018-07-06T12:01:46.137Z,4038.75
2018-07-06T12:02:46.134Z,4078.13
2018-07-06T12:03:46.178Z,4168.13
2018-07-06T12:04:46.205Z,4246.88
2018-07-06T12:05:46.242Z,4314.38
2018-07-06T12:06:46.285Z,4308.75
2018-07-06T12:07:46.313Z,4269.38
2018-07-06T12:08:46.349Z,4336.88
2018-07-06T12:09:46.387Z,4500.00
2018-07-06T12:10:46.421Z,4393.13
2018-07-06T12:11:46.462Z,4398.75
2018-07-06T12:12:46.497Z,4488.75
2018-07-06T12:13:46.531Z,4455.00
2018-07-06T12:14:46.566Z,4556.25
2018-07-06T12:15:46.610Z,4584.38
2018-07-06T12:16:46.640Z,4590.00
2018-07-06T12:17:46.674Z,4550.63
2018-07-06T12:18:46.717Z,4561.88
2018-07-06T12:19:46.748Z,4595.63
2018-07-06T12:20:46.892Z,4528.13
2018-07-06T12:21:46.825Z,4567.50
2018-07-06T12:22:46.864Z,4573.13
2018-07-06T12:23:46.902Z,4657.50
2018-07-06T12:24:46.932Z,4505.63
2018-07-06T12:25:46.976Z,4314.38
2018-07-06T12:26:47.007Z,4336.88
2018-07-06T12:27:47.095Z,4545.00
2018-07-06T12:28:47.080Z,4443.75
2018-07-06T12:29:47.115Z,3988.13
2018-07-06T12:30:47.149Z,4089.38
2018-07-06T12:31:47.190Z,4404.38
2018-07-06T12:32:47.228Z,4505.63
2018-07-06T12:33:47.268Z,4640.63
2018-07-06T12:34:47.302Z,4685.63
2018-07-06T12:35:47.343Z,4798.13
2018-07-06T12:36:47.414Z,4871.25
2018-07-06T12:37:47.407Z,4736.25
2018-07-06T12:38:47.452Z,4680.00
2018-07-06T12:39:47.483Z,4764.38
2018-07-06T12:40:47.531Z,4843.13
2018-07-06T12:41:47.555Z,4719.38
2018-07-06T12:42:47.590Z,4224.38
2018-07-06T12:43:47.629Z,4449.38
2018-07-06T12:44:47.667Z,4882.50
2018-07-06T12:45:47.704Z,4983.75
2018-07-06T12:46:47.748Z,4995.00
2018-07-06T12:47:47.782Z,4933.13
2018-07-06T12:48:47.865Z,4843.13
2018-07-06T12:49:47.856Z,4882.50
2018-07-06T12:50:47.891Z,4584.38
2018-07-06T12:51:47.924Z,4567.50
2018-07-06T12:52:47.964Z,4533.75
2018-07-06T12:53:47.998Z,4308.75
2018-07-06T12:54:48.050Z,4494.38
2018-07-06T12:55:48.075Z,4651.88
2018-07-06T12:56:48.118Z,4021.88
2018-07-06T12:57:48.154Z,3780.00
2018-07-06T12:58:48.310Z,3926.25
2018-07-06T12:59:48.229Z,3740.63
2018-07-06T13:00:48.259Z,3459.38
2018-07-06T13:01:48.305Z,3330.00
2018-07-06T13:02:48.340Z,3228.75
2018-07-06T13:03:48.376Z,3144.38
2018-07-06T13:04:48.417Z,3161.25
2018-07-06T13:05:48.456Z,3133.13
2018-07-06T13:06:48.486Z,3127.50
2018-07-06T13:07:48.527Z,3071.25